Time;durP1;ratioP1;P1;durP2;ratioP2;P2;SDS_P1;SDS_P2;PMS_P1;PMS_P2;Temp;Humidity;BMP_temperature;BMP_pressure;BME280_temperature;BME280_humidity;BME280_pressure;Samples;Min_cycle;Max_cycle;Signal;HPM_P1;HPM_P2
2022/05/18 00:02:25;;;;;;;9.52;2.05;;;;;;;;;;5022247;28;20076;-73
2022/05/18 00:04:51;;;;;;;8.57;2.20;;;;;;;;;;5024588;28;20072;-73
2022/05/18 00:07:17;;;;;;;9.50;2.17;;;;;;;;;;5024876;28;20034;-73
2022/05/18 00:09:43;;;;;;;6.57;2.03;;;;;;;;;;5026504;28;20568;-73
2022/05/18 00:12:09;;;;;;;9.60;2.55;;;;;;;;;;5024721;28;20482;-73
2022/05/18 00:14:36;;;;;;;7.55;2.80;;;;;;;;;;5023062;28;20029;-73
2022/05/18 00:17:03;;;;;;;10.10;2.33;;;;;;;;;;5021394;28;20048;-73
2022/05/18 00:19:33;;;;;;;7.47;2.13;;;;;;;;;;5023952;28;20025;-73
2022/05/18 00:21:59;;;;;;;7.82;2.22;;;;;;;;;;5022808;28;20048;-73
2022/05/18 00:24:26;;;;;;;7.57;2.20;;;;;;;;;;5021836;28;20029;-73
2022/05/18 00:26:52;;;;;;;5.70;1.73;;;;;;;;;;5035535;28;20572;-73
2022/05/18 00:29:18;;;;;;;9.38;2.90;;;;;;;;;;5021284;28;20101;-73
2022/05/18 00:31:46;;;;;;;8.88;2.70;;;;;;;;;;5020638;28;20073;-73
2022/05/18 00:34:13;;;;;;;8.77;2.58;;;;;;;;;;5022796;28;20029;-73
2022/05/18 00:36:39;;;;;;;9.05;2.72;;;;;;;;;;5021425;28;20042;-73
2022/05/18 00:39:06;;;;;;;11.27;2.78;;;;;;;;;;5024673;28;20386;-73
2022/05/18 00:41:32;;;;;;;8.05;2.55;;;;;;;;;;5022252;28;20362;-73
2022/05/18 00:43:59;;;;;;;9.13;2.50;;;;;;;;;;5020620;28;20151;-73
2022/05/18 00:46:25;;;;;;;6.68;2.15;;;;;;;;;;5025952;28;20046;-73
2022/05/18 00:48:53;;;;;;;6.43;2.22;;;;;;;;;;5021788;28;20049;-73
2022/05/18 00:51:34;;;;;;;9.25;2.38;;;;;;;;;;5024399;28;20049;-73
2022/05/18 00:54:00;;;;;;;7.05;2.40;;;;;;;;;;5023274;28;20033;-73
2022/05/18 00:56:28;;;;;;;6.68;2.28;;;;;;;;;;5022551;28;20084;-73
2022/05/18 00:59:00;;;;;;;5.10;2.05;;;;;;;;;;5019939;28;20037;-73
2022/05/18 01:01:26;;;;;;;12.85;3.10;;;;;;;;;;5023548;28;20057;-73
2022/05/18 01:03:53;;;;;;;10.27;2.58;;;;;;;;;;5025085;28;20033;-73
2022/05/18 01:06:19;;;;;;;7.45;3.13;;;;;;;;;;5037633;28;20037;-73
2022/05/18 01:08:50;;;;;;;5.57;2.75;;;;;;;;;;5023923;28;20025;-73
2022/05/18 01:11:17;;;;;;;10.35;2.63;;;;;;;;;;5021763;28;20038;-73
2022/05/18 01:13:44;;;;;;;7.97;2.70;;;;;;;;;;5023911;28;20029;-73
2022/05/18 01:16:10;;;;;;;8.57;2.67;;;;;;;;;;5023048;28;20041;-73
2022/05/18 01:18:36;;;;;;;12.32;2.65;;;;;;;;;;5023459;28;20031;-73
2022/05/18 01:21:02;;;;;;;8.88;2.65;;;;;;;;;;5024444;28;20116;-73
2022/05/18 01:23:45;;;;;;;11.50;3.13;;;;;;;;;;5027989;28;20030;-73
2022/05/18 01:26:15;;;;;;;9.82;2.53;;;;;;;;;;5020551;28;20038;-73
2022/05/18 01:28:42;;;;;;;10.85;2.60;;;;;;;;;;5024450;28;20033;-73
2022/05/18 01:31:09;;;;;;;10.15;3.10;;;;;;;;;;5021951;28;20084;-73
2022/05/18 01:33:35;;;;;;;6.90;3.33;;;;;;;;;;5024789;28;20030;-73
2022/05/18 01:36:01;;;;;;;8.00;2.80;;;;;;;;;;5024762;28;20704;-73
2022/05/18 01:38:28;;;;;;;9.55;3.08;;;;;;;;;;5024342;28;20041;-74
2022/05/18 01:40:57;;;;;;;7.70;2.78;;;;;;;;;;5018277;28;20102;-73
2022/05/18 01:43:25;;;;;;;6.57;2.25;;;;;;;;;;5020723;28;20471;-73
2022/05/18 01:45:52;;;;;;;9.95;3.00;;;;;;;;;;5026770;28;20050;-73
2022/05/18 01:48:20;;;;;;;6.93;2.05;;;;;;;;;;5021798;28;20029;-73
2022/05/18 01:50:46;;;;;;;7.68;2.15;;;;;;;;;;5022603;28;20057;-73
2022/05/18 01:53:12;;;;;;;7.57;2.30;;;;;;;;;;5023423;28;20534;-73
2022/05/18 01:55:38;;;;;;;9.65;2.25;;;;;;;;;;5021044;28;20038;-73
2022/05/18 01:58:05;;;;;;;5.28;2.17;;;;;;;;;;5018343;28;20033;-73
2022/05/18 02:00:32;;;;;;;8.38;2.53;;;;;;;;;;5021880;28;20117;-73
2022/05/18 02:02:58;;;;;;;5.55;1.80;;;;;;;;;;5021974;28;20057;-73
2022/05/18 02:05:24;;;;;;;8.70;2.83;;;;;;;;;;5022858;28;20041;-73
2022/05/18 02:07:50;;;;;;;9.35;3.42;;;;;;;;;;5024770;28;20021;-73
2022/05/18 02:10:16;;;;;;;9.00;3.22;;;;;;;;;;5021007;28;20037;-73
2022/05/18 02:12:42;;;;;;;9.38;2.90;;;;;;;;;;5024051;28;20037;-73
2022/05/18 02:15:08;;;;;;;11.27;3.13;;;;;;;;;;5020910;28;20045;-74
2022/05/18 02:17:36;;;;;;;6.10;2.30;;;;;;;;;;5016159;28;20034;-73
2022/05/18 02:20:03;;;;;;;7.30;2.85;;;;;;;;;;5024094;28;20124;-74
2022/05/18 02:22:29;;;;;;;9.13;3.13;;;;;;;;;;5022712;28;20128;-73
2022/05/18 02:24:55;;;;;;;7.22;2.72;;;;;;;;;;5024202;28;20793;-72
2022/05/18 02:27:21;;;;;;;10.70;3.05;;;;;;;;;;5021161;28;20028;-73
2022/05/18 02:29:47;;;;;;;11.52;3.85;;;;;;;;;;5019748;28;20049;-73
2022/05/18 02:32:13;;;;;;;11.32;2.78;;;;;;;;;;5021133;28;20450;-73
2022/05/18 02:34:39;;;;;;;9.30;2.88;;;;;;;;;;5020429;28;20049;-72
2022/05/18 02:37:06;;;;;;;8.18;2.97;;;;;;;;;;5024789;28;20041;-73
2022/05/18 02:39:32;;;;;;;9.70;2.70;;;;;;;;;;5023347;28;20399;-73
2022/05/18 02:41:58;;;;;;;8.25;2.85;;;;;;;;;;5033573;28;20030;-73
2022/05/18 02:44:24;;;;;;;12.52;3.42;;;;;;;;;;5018471;28;20068;-73
2022/05/18 02:46:50;;;;;;;8.90;3.60;;;;;;;;;;5019273;28;20057;-73
2022/05/18 02:49:16;;;;;;;12.25;3.30;;;;;;;;;;5019886;28;20041;-73
2022/05/18 02:51:42;;;;;;;8.90;2.78;;;;;;;;;;5021579;28;20060;-73
2022/05/18 02:56:54;;;;;;;7.72;3.30;;;;;;;;;;5021673;28;20099;-73
2022/05/18 02:59:20;;;;;;;9.80;3.00;;;;;;;;;;5022959;28;20033;-73
2022/05/18 03:01:46;;;;;;;7.07;3.35;;;;;;;;;;5021992;28;20041;-73
2022/05/18 03:04:13;;;;;;;8.50;3.22;;;;;;;;;;5023191;28;20034;-73
2022/05/18 03:06:39;;;;;;;11.40;3.10;;;;;;;;;;5022326;28;20841;-73
2022/05/18 03:09:05;;;;;;;10.38;3.00;;;;;;;;;;5019546;28;20025;-73
2022/05/18 03:11:31;;;;;;;10.80;3.50;;;;;;;;;;5022949;28;20044;-73
2022/05/18 03:13:57;;;;;;;8.07;3.15;;;;;;;;;;5020941;28;20134;-73
2022/05/18 03:16:24;;;;;;;8.65;3.03;;;;;;;;;;5018448;28;20818;-73
2022/05/18 03:18:50;;;;;;;15.00;3.67;;;;;;;;;;5021809;28;20112;-73
2022/05/18 03:24:17;;;;;;;8.80;3.22;;;;;;;;;;5022145;28;20034;-73
2022/05/18 03:26:44;;;;;;;7.72;2.92;;;;;;;;;;5024799;28;20858;-73
2022/05/18 03:29:10;;;;;;;8.90;2.70;;;;;;;;;;5022722;28;20825;-73
2022/05/18 03:31:36;;;;;;;9.88;3.55;;;;;;;;;;5023146;28;20040;-73
2022/05/18 03:34:02;;;;;;;8.98;2.83;;;;;;;;;;5026757;28;20036;-73
2022/05/18 03:36:28;;;;;;;12.30;4.20;;;;;;;;;;5026532;28;20394;-73
2022/05/18 03:38:54;;;;;;;9.32;3.40;;;;;;;;;;5038078;28;20033;-73
2022/05/18 03:41:21;;;;;;;11.75;3.40;;;;;;;;;;5023485;28;20037;-73
2022/05/18 03:43:47;;;;;;;9.20;3.25;;;;;;;;;;5030185;28;20471;-73
2022/05/18 03:46:13;;;;;;;10.88;3.35;;;;;;;;;;5022375;28;20062;-73
2022/05/18 03:48:40;;;;;;;12.50;3.38;;;;;;;;;;5027633;28;20030;-73
2022/05/18 03:51:07;;;;;;;9.43;3.30;;;;;;;;;;5025666;28;20128;-73
2022/05/18 03:53:33;;;;;;;8.07;3.40;;;;;;;;;;5027844;28;20121;-73
2022/05/18 03:55:59;;;;;;;12.50;4.10;;;;;;;;;;5022119;28;20506;-73
2022/05/18 03:58:26;;;;;;;11.82;3.72;;;;;;;;;;5022540;28;20021;-73
2022/05/18 04:00:53;;;;;;;10.70;4.10;;;;;;;;;;5023377;28;20029;-73
2022/05/18 04:03:20;;;;;;;11.13;4.03;;;;;;;;;;5027391;28;20108;-73
2022/05/18 04:05:50;;;;;;;7.95;3.38;;;;;;;;;;5023368;28;20121;-73
2022/05/18 04:08:16;;;;;;;14.27;3.30;;;;;;;;;;5023503;28;20025;-73
2022/05/18 04:10:42;;;;;;;13.90;3.55;;;;;;;;;;5024027;28;20037;-73
2022/05/18 04:13:12;;;;;;;11.93;3.22;;;;;;;;;;5025791;28;20043;-73
2022/05/18 04:15:38;;;;;;;9.57;4.22;;;;;;;;;;5024126;28;20072;-73
2022/05/18 04:18:05;;;;;;;9.65;4.45;;;;;;;;;;5026103;28;20038;-73
2022/05/18 04:20:31;;;;;;;11.68;3.58;;;;;;;;;;5024671;28;20042;-73
2022/05/18 04:22:57;;;;;;;12.38;3.33;;;;;;;;;;5021301;28;20121;-73
2022/05/18 04:25:25;;;;;;;11.68;3.70;;;;;;;;;;5025279;28;20044;-73
2022/05/18 04:27:51;;;;;;;11.50;4.38;;;;;;;;;;5023955;28;20525;-73
2022/05/18 04:30:18;;;;;;;11.43;3.90;;;;;;;;;;5021409;28;20049;-73
2022/05/18 04:32:44;;;;;;;8.10;3.90;;;;;;;;;;5024946;28;20103;-73
2022/05/18 04:35:11;;;;;;;8.80;4.85;;;;;;;;;;5024328;28;20045;-73
2022/05/18 04:37:37;;;;;;;13.75;3.75;;;;;;;;;;5022893;28;20107;-73
2022/05/18 04:40:04;;;;;;;12.73;3.63;;;;;;;;;;5025421;28;20049;-73
2022/05/18 04:42:30;;;;;;;14.50;4.40;;;;;;;;;;5033961;28;20038;-73
2022/05/18 04:44:56;;;;;;;9.80;3.88;;;;;;;;;;5038471;28;20030;-73
2022/05/18 04:47:23;;;;;;;8.82;3.63;;;;;;;;;;5022797;28;20503;-73
2022/05/18 04:49:50;;;;;;;10.48;4.18;;;;;;;;;;5036151;28;20103;-73
2022/05/18 04:52:17;;;;;;;9.55;4.53;;;;;;;;;;5021820;28;20068;-73
2022/05/18 04:54:43;;;;;;;12.32;4.88;;;;;;;;;;5024264;28;20034;-73
2022/05/18 04:57:09;;;;;;;12.23;4.35;;;;;;;;;;5022867;28;20041;-73
2022/05/18 04:59:35;;;;;;;10.45;4.35;;;;;;;;;;5025983;28;20144;-72
2022/05/18 05:02:02;;;;;;;14.88;4.75;;;;;;;;;;5024789;28;20086;-72
2022/05/18 05:04:28;;;;;;;12.15;4.65;;;;;;;;;;5024390;28;20053;-72
2022/05/18 05:06:54;;;;;;;10.32;4.25;;;;;;;;;;5021348;28;20489;-73
2022/05/18 05:09:22;;;;;;;9.55;3.60;;;;;;;;;;5022398;28;20646;-72
2022/05/18 05:11:48;;;;;;;11.05;3.70;;;;;;;;;;5021682;28;20033;-73
2022/05/18 05:14:14;;;;;;;10.75;4.28;;;;;;;;;;5023931;28;20074;-73
2022/05/18 05:16:41;;;;;;;11.93;4.30;;;;;;;;;;5022828;28;20037;-73
2022/05/18 05:19:07;;;;;;;11.43;4.53;;;;;;;;;;5023568;28;20040;-73
2022/05/18 05:21:33;;;;;;;9.98;3.80;;;;;;;;;;5020727;28;20045;-72
2022/05/18 05:23:59;;;;;;;10.10;4.03;;;;;;;;;;5024022;28;20826;-73
2022/05/18 05:26:25;;;;;;;7.25;3.67;;;;;;;;;;5020359;28;20764;-73
2022/05/18 05:28:51;;;;;;;14.88;4.80;;;;;;;;;;5023980;28;20030;-72
2022/05/18 05:31:17;;;;;;;10.27;4.65;;;;;;;;;;5023077;28;20041;-73
2022/05/18 05:33:43;;;;;;;13.15;5.05;;;;;;;;;;5040232;28;20033;-73
2022/05/18 05:36:10;;;;;;;12.98;5.07;;;;;;;;;;5019677;28;20045;-73
2022/05/18 05:38:36;;;;;;;14.35;5.07;;;;;;;;;;5023695;28;20044;-71
2022/05/18 05:41:02;;;;;;;12.73;4.85;;;;;;;;;;5021890;28;20159;-71
2022/05/18 05:43:32;;;;;;;14.13;6.90;;;;;;;;;;5023984;28;20103;-71
2022/05/18 05:45:59;;;;;;;18.85;7.85;;;;;;;;;;5020028;28;20057;-73
2022/05/18 05:48:26;;;;;;;12.48;4.70;;;;;;;;;;5017114;28;20095;-72
2022/05/18 05:50:52;;;;;;;9.32;3.38;;;;;;;;;;5025126;28;20037;-72
2022/05/18 05:53:17;;;;;;;13.48;6.00;;;;;;;;;;5019510;28;20029;-72
2022/05/18 05:55:43;;;;;;;17.00;5.45;;;;;;;;;;5022897;28;20742;-72
2022/05/18 05:58:09;;;;;;;15.30;5.97;;;;;;;;;;5023201;28;20061;-72
2022/05/18 06:00:36;;;;;;;17.23;5.78;;;;;;;;;;5021280;28;20037;-72
2022/05/18 06:03:03;;;;;;;15.32;5.13;;;;;;;;;;5018275;28;20124;-72
2022/05/18 06:05:29;;;;;;;16.20;5.00;;;;;;;;;;5022078;28;20042;-72
2022/05/18 06:07:55;;;;;;;17.02;5.13;;;;;;;;;;5022507;28;20810;-73
2022/05/18 06:10:21;;;;;;;19.52;6.50;;;;;;;;;;5024713;28;20119;-72
2022/05/18 06:12:47;;;;;;;16.63;5.65;;;;;;;;;;5023740;28;20030;-72
2022/05/18 06:15:13;;;;;;;15.32;5.35;;;;;;;;;;5022704;28;20047;-73
2022/05/18 06:17:40;;;;;;;11.05;5.75;;;;;;;;;;5020851;28;20517;-73
2022/05/18 06:20:06;;;;;;;14.65;6.00;;;;;;;;;;5022838;28;20120;-72
2022/05/18 06:22:32;;;;;;;14.90;5.65;;;;;;;;;;5023765;28;20580;-72
2022/05/18 06:24:58;;;;;;;11.25;4.22;;;;;;;;;;5024042;28;20060;-72
2022/05/18 06:27:24;;;;;;;10.13;4.55;;;;;;;;;;5023746;28;20053;-72
2022/05/18 06:29:50;;;;;;;8.68;3.60;;;;;;;;;;5022933;28;20030;-72
2022/05/18 06:32:17;;;;;;;9.98;3.42;;;;;;;;;;5016921;28;20525;-72
2022/05/18 06:34:44;;;;;;;9.70;3.75;;;;;;;;;;5022144;28;20046;-72
2022/05/18 06:37:11;;;;;;;12.45;3.80;;;;;;;;;;5022321;28;20157;-72
2022/05/18 06:39:37;;;;;;;10.88;3.55;;;;;;;;;;5024883;28;20037;-72
2022/05/18 06:42:03;;;;;;;14.15;3.65;;;;;;;;;;5018129;28;20034;-72
2022/05/18 06:44:29;;;;;;;11.68;3.70;;;;;;;;;;5021846;28;20033;-72
2022/05/18 06:46:58;;;;;;;11.60;3.67;;;;;;;;;;5022762;28;20077;-72
2022/05/18 06:49:26;;;;;;;9.60;3.58;;;;;;;;;;5019219;28;20026;-72
2022/05/18 06:51:52;;;;;;;11.52;3.88;;;;;;;;;;5026580;28;20034;-72
2022/05/18 06:54:19;;;;;;;11.10;4.32;;;;;;;;;;5026193;28;20033;-72
2022/05/18 06:56:45;;;;;;;10.43;4.35;;;;;;;;;;5022515;28;20055;-72
2022/05/18 06:59:12;;;;;;;12.93;4.40;;;;;;;;;;5026397;28;20463;-72
2022/05/18 07:01:38;;;;;;;10.40;3.80;;;;;;;;;;5039139;28;20040;-72
2022/05/18 07:04:05;;;;;;;10.02;3.45;;;;;;;;;;5025555;28;20034;-72
2022/05/18 07:06:33;;;;;;;22.58;5.95;;;;;;;;;;5027839;28;20064;-73
2022/05/18 07:08:59;;;;;;;10.40;5.15;;;;;;;;;;5027694;28;20521;-73
2022/05/18 07:11:26;;;;;;;12.65;4.82;;;;;;;;;;5027336;28;20982;-72
2022/05/18 07:13:53;;;;;;;12.85;4.97;;;;;;;;;;5042155;28;20470;-73
2022/05/18 07:16:20;;;;;;;14.85;5.55;;;;;;;;;;5022854;28;20040;-72
2022/05/18 07:18:47;;;;;;;11.35;3.13;;;;;;;;;;5025304;28;20112;-72
2022/05/18 07:21:14;;;;;;;5.50;2.33;;;;;;;;;;5024016;28;20505;-72
2022/05/18 07:23:40;;;;;;;12.13;3.60;;;;;;;;;;5025691;28;20224;-72
2022/05/18 07:26:07;;;;;;;8.07;2.55;;;;;;;;;;5024613;28;20845;-73
2022/05/18 07:28:33;;;;;;;8.93;2.65;;;;;;;;;;5026435;28;20286;-72
2022/05/18 07:30:59;;;;;;;8.45;2.47;;;;;;;;;;5025409;28;20044;-73
2022/05/18 07:33:25;;;;;;;8.82;2.60;;;;;;;;;;5024279;28;20037;-72
2022/05/18 07:35:53;;;;;;;6.53;2.28;;;;;;;;;;5024550;28;20601;-72
2022/05/18 07:38:20;;;;;;;10.13;4.40;;;;;;;;;;5026199;28;20394;-72
2022/05/18 07:40:47;;;;;;;12.13;5.03;;;;;;;;;;5025895;28;20037;-72
2022/05/18 07:43:13;;;;;;;10.32;4.35;;;;;;;;;;5023141;28;20045;-72
2022/05/18 07:45:39;;;;;;;16.95;3.40;;;;;;;;;;5026533;28;20576;-72
2022/05/18 07:48:05;;;;;;;16.98;3.58;;;;;;;;;;5024281;28;20029;-72
2022/05/18 07:50:31;;;;;;;11.23;3.20;;;;;;;;;;5026408;28;20522;-73
2022/05/18 07:52:59;;;;;;;9.80;3.60;;;;;;;;;;5026196;28;20044;-72
2022/05/18 07:55:25;;;;;;;8.70;3.40;;;;;;;;;;5025233;28;20382;-72
2022/05/18 07:57:51;;;;;;;11.43;3.45;;;;;;;;;;5024804;28;20034;-73
2022/05/18 08:00:18;;;;;;;12.90;3.22;;;;;;;;;;5020626;28;20611;-72
2022/05/18 08:02:44;;;;;;;7.65;2.70;;;;;;;;;;5024071;28;20037;-72
2022/05/18 08:05:10;;;;;;;9.00;3.22;;;;;;;;;;5026113;28;20041;-72
2022/05/18 08:07:37;;;;;;;11.10;4.03;;;;;;;;;;5026824;28;20032;-72
2022/05/18 08:15:33;;;;;;;9.23;2.95;;;;;;;;;;5026653;28;20053;-72
2022/05/18 08:17:59;;;;;;;12.15;2.60;;;;;;;;;;5023024;28;20036;-72
2022/05/18 08:20:25;;;;;;;11.30;2.97;;;;;;;;;;5025270;28;20428;-72
2022/05/18 08:22:52;;;;;;;12.63;2.92;;;;;;;;;;5022993;28;20041;-72
2022/05/18 08:25:18;;;;;;;10.15;2.90;;;;;;;;;;5027316;28;20037;-73
2022/05/18 08:27:45;;;;;;;9.10;2.38;;;;;;;;;;5025222;28;20029;-72
2022/05/18 08:30:13;;;;;;;11.35;2.83;;;;;;;;;;5041649;28;20040;-73
2022/05/18 08:32:39;;;;;;;8.63;2.10;;;;;;;;;;5026488;28;20108;-72
2022/05/18 08:35:06;;;;;;;9.15;2.78;;;;;;;;;;5025487;28;20043;-73
2022/05/18 08:37:37;;;;;;;9.35;2.53;;;;;;;;;;5024454;28;20689;-73
2022/05/18 08:40:04;;;;;;;9.82;2.95;;;;;;;;;;5025558;28;20116;-72
2022/05/18 08:42:30;;;;;;;13.65;3.08;;;;;;;;;;5023620;28;20656;-73
2022/05/18 08:44:56;;;;;;;8.23;2.85;;;;;;;;;;5026401;28;20029;-72
2022/05/18 08:47:38;;;;;;;19.45;3.97;;;;;;;;;;5023356;28;20059;-72
2022/05/18 08:50:07;;;;;;;12.10;2.90;;;;;;;;;;5026909;28;20042;-72
2022/05/18 08:52:39;;;;;;;12.07;2.85;;;;;;;;;;5020152;28;20126;-72
2022/05/18 08:55:08;;;;;;;11.43;3.13;;;;;;;;;;5023614;28;20120;-73
2022/05/18 08:57:36;;;;;;;11.48;3.28;;;;;;;;;;5024821;28;20030;-72
2022/05/18 09:00:09;;;;;;;13.10;3.22;;;;;;;;;;5037645;28;20797;-72
2022/05/18 09:02:35;;;;;;;11.13;2.90;;;;;;;;;;5022145;28;20109;-72
2022/05/18 09:05:11;;;;;;;11.32;3.10;;;;;;;;;;5021868;28;20121;-73
2022/05/18 09:07:57;;;;;;;11.30;3.00;;;;;;;;;;5026057;28;20938;-72
2022/05/18 09:10:30;;;;;;;10.50;2.75;;;;;;;;;;5021067;28;20392;-72
2022/05/18 09:12:56;;;;;;;8.82;2.47;;;;;;;;;;5023642;28;20025;-73
2022/05/18 09:15:36;;;;;;;9.00;3.00;;;;;;;;;;5025276;28;20041;-72
2022/05/18 09:18:06;;;;;;;7.90;2.70;;;;;;;;;;5024188;28;20064;-72
2022/05/18 09:20:59;;;;;;;9.75;2.75;;;;;;;;;;5025415;28;20502;-72
2022/05/18 09:23:28;;;;;;;7.70;2.65;;;;;;;;;;5019731;28;20053;-73
2022/05/18 09:25:57;;;;;;;14.45;3.17;;;;;;;;;;5024488;28;20099;-72
2022/05/18 09:28:23;;;;;;;11.45;2.85;;;;;;;;;;5021587;28;20033;-73
2022/05/18 09:30:58;;;;;;;9.35;2.97;;;;;;;;;;5022372;28;20051;-72
2022/05/18 09:33:30;;;;;;;6.72;2.70;;;;;;;;;;5022048;28;20057;-72
2022/05/18 09:36:11;;;;;;;7.90;2.70;;;;;;;;;;5021970;28;20376;-72
2022/05/18 09:38:40;;;;;;;8.48;2.60;;;;;;;;;;5021853;28;20036;-72
2022/05/18 09:41:10;;;;;;;8.88;2.55;;;;;;;;;;5024215;28;20044;-72
2022/05/18 09:43:40;;;;;;;9.57;3.13;;;;;;;;;;5024180;28;20465;-72
2022/05/18 09:46:09;;;;;;;11.77;2.60;;;;;;;;;;5019363;28;20135;-72
2022/05/18 09:48:40;;;;;;;10.23;2.35;;;;;;;;;;5022023;28;20026;-72
2022/05/18 09:51:08;;;;;;;8.02;2.67;;;;;;;;;;5024373;28;20644;-73
2022/05/18 09:53:34;;;;;;;6.18;2.40;;;;;;;;;;5021555;28;20036;-72
2022/05/18 09:56:00;;;;;;;8.00;2.35;;;;;;;;;;5024052;28;20033;-72
2022/05/18 09:58:26;;;;;;;13.07;2.85;;;;;;;;;;5022622;28;20025;-72
2022/05/18 10:09:42;;;;;;;12.93;2.75;;;;;;;;;;5020742;28;20107;-72
2022/05/18 10:12:13;;;;;;;8.88;2.65;;;;;;;;;;5020450;28;20052;-72
2022/05/18 10:14:39;;;;;;;12.68;3.10;;;;;;;;;;5023039;28;20116;-72
2022/05/18 10:17:07;;;;;;;9.52;3.17;;;;;;;;;;5024269;28;20065;-72
2022/05/18 10:19:36;;;;;;;9.90;2.58;;;;;;;;;;5018542;28;20895;-72
2022/05/18 10:22:03;;;;;;;11.25;2.50;;;;;;;;;;5022661;28;20039;-73
2022/05/18 10:24:45;;;;;;;8.63;2.40;;;;;;;;;;5022739;28;20128;-72
2022/05/18 10:27:18;;;;;;;11.07;2.90;;;;;;;;;;5024232;28;20033;-73
2022/05/18 10:29:49;;;;;;;9.95;3.03;;;;;;;;;;5026879;28;20031;-73
2022/05/18 10:32:15;;;;;;;;;;;;;;;;;;5027487;28;20072;-72
2022/05/18 10:34:43;;;;;;;8.32;3.17;;;;;;;;;;5027317;28;19913;-72
2022/05/18 10:37:11;;;;;;;9.88;2.75;;;;;;;;;;5023295;28;20045;-72
2022/05/18 10:39:41;;;;;;;12.27;2.90;;;;;;;;;;5043534;28;20025;-72
2022/05/18 10:42:10;;;;;;;12.60;3.65;;;;;;;;;;5027230;28;20085;-72
2022/05/18 10:44:37;;;;;;;9.38;2.58;;;;;;;;;;5027565;28;20116;-72
2022/05/18 10:47:15;;;;;;;10.45;2.97;;;;;;;;;;5024731;28;20053;-72
2022/05/18 10:49:42;;;;;;;10.10;2.40;;;;;;;;;;5025564;28;20156;-72
2022/05/18 10:52:11;;;;;;;15.48;3.25;;;;;;;;;;5025326;28;20030;-73
2022/05/18 10:54:38;;;;;;;14.23;3.17;;;;;;;;;;5029120;28;20033;-72
2022/05/18 10:57:12;;;;;;;10.55;2.63;;;;;;;;;;5027605;28;20095;-72
2022/05/18 10:59:57;;;;;;;11.07;2.83;;;;;;;;;;5028059;28;20049;-73
2022/05/18 11:02:27;;;;;;;10.60;3.53;;;;;;;;;;5024851;28;20086;-73
2022/05/18 11:04:57;;;;;;;10.43;3.03;;;;;;;;;;5024274;28;20029;-72
2022/05/18 11:07:25;;;;;;;11.18;3.00;;;;;;;;;;5025456;28;20435;-72
2022/05/18 11:09:51;;;;;;;5.10;2.50;;;;;;;;;;5030806;28;20033;-72
2022/05/18 11:12:36;;;;;;;14.02;2.65;;;;;;;;;;5025188;28;20025;-72
2022/05/18 11:15:05;;;;;;;7.40;2.85;;;;;;;;;;5029070;28;20061;-72
2022/05/18 11:17:50;;;;;;;16.10;2.95;;;;;;;;;;5025664;28;20037;-72
2022/05/18 11:20:16;;;;;;;9.00;2.80;;;;;;;;;;5025464;28;20462;-72
2022/05/18 11:22:42;;;;;;;7.25;2.55;;;;;;;;;;5023770;28;20033;-73
2022/05/18 11:25:27;;;;;;;11.40;3.00;;;;;;;;;;5025679;28;20418;-72
2022/05/18 11:27:58;;;;;;;9.48;3.33;;;;;;;;;;5027533;28;20091;-72
2022/05/18 11:30:24;;;;;;;8.13;3.10;;;;;;;;;;5026547;28;20132;-73
2022/05/18 11:33:09;;;;;;;7.13;2.40;;;;;;;;;;5025351;28;20029;-72
2022/05/18 11:35:50;;;;;;;6.85;2.72;;;;;;;;;;5023070;28;20038;-73
2022/05/18 11:38:16;;;;;;;8.98;2.38;;;;;;;;;;5023715;28;20044;-72
2022/05/18 11:40:42;;;;;;;5.50;2.47;;;;;;;;;;5026801;28;20046;-72
2022/05/18 11:43:28;;;;;;;8.30;2.60;;;;;;;;;;5023514;28;20106;-72
2022/05/18 11:46:12;;;;;;;8.88;2.20;;;;;;;;;;5024235;28;20053;-72
2022/05/18 11:49:01;;;;;;;8.82;2.67;;;;;;;;;;5024140;28;20021;-72
2022/05/18 11:51:46;;;;;;;7.38;2.45;;;;;;;;;;5017667;28;20041;-73
2022/05/18 11:54:30;;;;;;;6.65;2.67;;;;;;;;;;5023756;28;20041;-72
2022/05/18 11:57:03;;;;;;;9.82;2.60;;;;;;;;;;5024261;28;20566;-72
2022/05/18 11:59:58;;;;;;;11.18;2.30;;;;;;;;;;5023157;28;20117;-72
2022/05/18 12:02:42;;;;;;;8.95;2.15;;;;;;;;;;5024077;28;20039;-72
2022/05/18 12:05:08;;;;;;;10.60;2.28;;;;;;;;;;5026730;28;20447;-72
2022/05/18 12:07:44;;;;;;;10.23;2.45;;;;;;;;;;5027886;28;20037;-73
2022/05/18 12:10:16;;;;;;;8.00;2.60;;;;;;;;;;5025839;28;20565;-72
2022/05/18 12:13:03;;;;;;;9.00;2.67;;;;;;;;;;5026957;28;20550;-72
2022/05/18 12:15:36;;;;;;;11.45;2.60;;;;;;;;;;5024409;28;20079;-73
2022/05/18 12:18:05;;;;;;;11.10;2.85;;;;;;;;;;5024126;28;20025;-72
2022/05/18 12:20:43;;;;;;;11.60;2.92;;;;;;;;;;5025735;28;20030;-72
2022/05/18 12:23:12;;;;;;;8.93;2.58;;;;;;;;;;5025953;28;20040;-72
2022/05/18 12:25:39;;;;;;;15.30;2.30;;;;;;;;;;5023509;28;20454;-72
2022/05/18 12:28:06;;;;;;;7.63;2.58;;;;;;;;;;5022677;28;20034;-72
2022/05/18 12:30:33;;;;;;;9.30;2.38;;;;;;;;;;5022330;28;20835;-72
2022/05/18 12:33:01;;;;;;;10.00;2.60;;;;;;;;;;5023378;28;20033;-72
2022/05/18 12:35:35;;;;;;;10.45;2.63;;;;;;;;;;5022436;28;20029;-72
2022/05/18 12:38:12;;;;;;;7.65;2.17;;;;;;;;;;5025401;28;20043;-72
2022/05/18 12:40:52;;;;;;;8.65;2.10;;;;;;;;;;5023672;28;20029;-72
2022/05/18 12:43:25;;;;;;;6.25;1.88;;;;;;;;;;5038480;28;20034;-72
2022/05/18 12:45:56;;;;;;;9.68;2.17;;;;;;;;;;5023466;28;20049;-72
2022/05/18 12:48:34;;;;;;;9.20;2.22;;;;;;;;;;5022221;28;20044;-72
2022/05/18 12:51:00;;;;;;;9.68;2.13;;;;;;;;;;5024118;28;20112;-72
2022/05/18 12:53:31;;;;;;;3.83;1.50;;;;;;;;;;5026479;28;20033;-72
2022/05/18 12:56:05;;;;;;;7.20;2.35;;;;;;;;;;5021758;28;20035;-72
2022/05/18 12:58:43;;;;;;;5.97;2.17;;;;;;;;;;5024881;28;20120;-72
2022/05/18 13:01:09;;;;;;;6.90;2.22;;;;;;;;;;5021966;28;20034;-72
2022/05/18 13:03:43;;;;;;;5.75;2.30;;;;;;;;;;5027104;28;20092;-72
2022/05/18 13:06:17;;;;;;;7.82;2.20;;;;;;;;;;5037753;28;20739;-72
2022/05/18 13:08:55;;;;;;;8.75;2.13;;;;;;;;;;5024410;28;20029;-72
2022/05/18 13:11:21;;;;;;;12.63;2.03;;;;;;;;;;5021788;28;20379;-72
2022/05/18 13:13:59;;;;;;;7.75;2.45;;;;;;;;;;5026001;28;20043;-73
2022/05/18 13:16:45;;;;;;;7.97;2.22;;;;;;;;;;5022715;28;20362;-73
2022/05/18 13:19:14;;;;;;;8.57;2.42;;;;;;;;;;5020068;28;20120;-72
2022/05/18 13:22:00;;;;;;;7.13;1.98;;;;;;;;;;5024292;28;20038;-72
2022/05/18 13:24:26;;;;;;;7.88;2.33;;;;;;;;;;5018899;28;20039;-72
2022/05/18 13:26:52;;;;;;;13.00;2.47;;;;;;;;;;5024066;28;20033;-72
2022/05/18 13:29:22;;;;;;;5.57;1.90;;;;;;;;;;5022885;28;20046;-72
2022/05/18 13:32:01;;;;;;;7.95;2.20;;;;;;;;;;5024119;28;20037;-72
2022/05/18 13:34:42;;;;;;;7.82;2.40;;;;;;;;;;5023907;28;20592;-73
2022/05/18 13:37:08;;;;;;;10.95;2.78;;;;;;;;;;5022305;28;20042;-73
2022/05/18 13:39:47;;;;;;;15.68;2.63;;;;;;;;;;5026125;28;20037;-72
2022/05/18 13:42:18;;;;;;;7.78;2.15;;;;;;;;;;5018890;28;20390;-72
2022/05/18 13:44:45;;;;;;;12.43;2.17;;;;;;;;;;5022789;28;20029;-72
2022/05/18 13:47:13;;;;;;;8.88;2.33;;;;;;;;;;5022997;28;20056;-72
2022/05/18 13:49:40;;;;;;;7.90;2.22;;;;;;;;;;5026083;28;20033;-73
2022/05/18 13:52:12;;;;;;;11.00;2.50;;;;;;;;;;5022991;28;20041;-72
2022/05/18 13:54:40;;;;;;;6.30;1.98;;;;;;;;;;5026218;28;20065;-72
2022/05/18 13:57:07;;;;;;;8.63;2.30;;;;;;;;;;5021818;28;20041;-73
2022/05/18 13:59:34;;;;;;;9.07;2.30;;;;;;;;;;5025522;28;20037;-72
2022/05/18 14:02:03;;;;;;;8.80;2.30;;;;;;;;;;5019852;28;20033;-72
2022/05/18 14:04:37;;;;;;;5.97;1.70;;;;;;;;;;5020170;28;20064;-73
2022/05/18 14:07:03;;;;;;;14.68;2.15;;;;;;;;;;5023075;28;20036;-72
2022/05/18 14:09:30;;;;;;;9.30;2.33;;;;;;;;;;5023861;28;20033;-72
2022/05/18 14:11:59;;;;;;;7.43;2.65;;;;;;;;;;5023711;28;20060;-72
2022/05/18 14:14:31;;;;;;;8.85;2.92;;;;;;;;;;5021126;28;20422;-72
2022/05/18 14:17:01;;;;;;;6.20;2.00;;;;;;;;;;5020856;28;20114;-73
2022/05/18 14:19:32;;;;;;;7.32;2.35;;;;;;;;;;5022776;28;20025;-72
2022/05/18 14:21:58;;;;;;;6.63;1.90;;;;;;;;;;5021682;28;20431;-73
2022/05/18 14:24:26;;;;;;;7.13;2.00;;;;;;;;;;5020034;28;20033;-72
2022/05/18 14:26:55;;;;;;;10.00;2.30;;;;;;;;;;5023373;28;20455;-72
2022/05/18 14:29:38;;;;;;;12.60;2.67;;;;;;;;;;5021988;28;20030;-73
2022/05/18 14:32:07;;;;;;;6.25;1.85;;;;;;;;;;5022799;28;20052;-72
2022/05/18 14:34:39;;;;;;;10.27;2.33;;;;;;;;;;5037281;28;20029;-72
2022/05/18 14:37:11;;;;;;;6.03;2.00;;;;;;;;;;5034684;28;20045;-72
2022/05/18 14:39:38;;;;;;;8.05;2.20;;;;;;;;;;5019936;28;20136;-73
2022/05/18 14:42:05;;;;;;;9.98;2.28;;;;;;;;;;5022123;28;20049;-73
2022/05/18 14:44:44;;;;;;;7.88;2.17;;;;;;;;;;5021412;28;20030;-73
2022/05/18 14:47:18;;;;;;;4.82;1.80;;;;;;;;;;5020866;28;20128;-73
2022/05/18 14:49:44;;;;;;;7.65;1.90;;;;;;;;;;5023638;28;20029;-73
2022/05/18 14:52:13;;;;;;;6.65;2.00;;;;;;;;;;5024529;28;20048;-72
2022/05/18 14:54:47;;;;;;;8.27;2.22;;;;;;;;;;5020860;28;20034;-73
2022/05/18 14:57:24;;;;;;;7.22;1.92;;;;;;;;;;5024697;28;20558;-72
2022/05/18 14:59:51;;;;;;;7.38;2.40;;;;;;;;;;5022796;28;20033;-72
2022/05/18 15:02:18;;;;;;;6.57;2.13;;;;;;;;;;5020625;28;20175;-73
2022/05/18 15:05:04;;;;;;;9.93;2.45;;;;;;;;;;5022326;28;20025;-73
2022/05/18 15:07:38;;;;;;;7.07;2.30;;;;;;;;;;5035591;28;20403;-73
2022/05/18 15:10:06;;;;;;;6.53;2.28;;;;;;;;;;5017163;28;20033;-72